Time;durP1;ratioP1;P1;durP2;ratioP2;P2;SDS_P1;SDS_P2;PMS_P1;PMS_P2;Temp;Humidity;BMP_temperature;BMP_pressure;BME280_temperature;BME280_humidity;BME280_pressure;Samples;Min_cycle;Max_cycle;Signal;HPM_P1;HPM_P2
2021/06/22 00:02:15;;;;;;;;;;;23.60;73.10;;;;;;5068101;28;19920;-85
2021/06/22 00:04:40;;;;;;;;;;;23.60;72.30;;;;;;5062613;28;19909;-85
2021/06/22 00:07:06;;;;;;;;;;;23.60;72.70;;;;;;5036091;28;20003;-85
2021/06/22 00:09:32;;;;;;;;;;;23.60;73.00;;;;;;5036149;28;20262;-84
2021/06/22 00:11:57;;;;;;;;;;;23.60;72.90;;;;;;5035963;28;19996;-84
2021/06/22 00:14:23;;;;;;;;;;;23.50;73.10;;;;;;5036132;28;19909;-84
2021/06/22 00:16:48;;;;;;;;;;;23.50;73.50;;;;;;5035834;28;19913;-84
2021/06/22 00:19:14;;;;;;;;;;;23.40;73.70;;;;;;5053629;28;19908;-84
2021/06/22 00:21:39;;;;;;;;;;;23.40;73.70;;;;;;5044749;28;19920;-84
2021/06/22 00:24:05;;;;;;;;;;;23.30;73.00;;;;;;5055873;28;19914;-84
2021/06/22 00:26:31;;;;;;;;;;;23.30;73.90;;;;;;5073951;28;19908;-84
2021/06/22 00:28:56;;;;;;;;;;;23.30;73.80;;;;;;5055992;28;19948;-85
2021/06/22 00:31:22;;;;;;;;;;;23.20;73.60;;;;;;5073748;28;19909;-85
2021/06/22 00:33:47;;;;;;;;;;;23.20;73.80;;;;;;5055765;28;19916;-84
2021/06/22 00:36:13;;;;;;;;;;;23.20;73.30;;;;;;5073578;28;20324;-81
2021/06/22 00:38:39;;;;;;;;;;;23.10;72.60;;;;;;5056055;28;19920;-85
2021/06/22 00:41:04;;;;;;;;;;;23.10;73.30;;;;;;5073590;28;19928;-85
2021/06/22 00:43:30;;;;;;;;;;;23.10;73.10;;;;;;5055703;28;19913;-85
2021/06/22 00:45:55;;;;;;;;;;;23.10;73.00;;;;;;5055690;28;20274;-85
2021/06/22 00:48:21;;;;;;;;;;;23.00;73.30;;;;;;5073463;28;19909;-87
2021/06/22 00:50:46;;;;;;;;;;;23.10;73.10;;;;;;5073312;28;19909;-86
2021/06/22 00:53:12;;;;;;;;;;;23.00;73.30;;;;;;5055647;28;19908;-87
2021/06/22 00:55:37;;;;;;;;;;;23.00;73.20;;;;;;5055554;28;19930;-86
2021/06/22 00:58:07;;;;;;;;;;;23.00;73.20;;;;;;5055671;28;19939;-87
2021/06/22 01:00:34;;;;;;;;;;;23.00;72.40;;;;;;5073397;28;20366;-86
2021/06/22 01:03:00;;;;;;;;;;;23.00;72.20;;;;;;5073597;28;20003;-86
2021/06/22 01:05:26;;;;;;;;;;;23.00;71.80;;;;;;5057364;28;19909;-86
2021/06/22 01:07:53;;;;;;;;;;;23.00;71.80;;;;;;5058882;28;19921;-86
2021/06/22 01:10:19;;;;;;;;;;;23.00;71.50;;;;;;5077085;28;19958;-86
2021/06/22 01:12:45;;;;;;;;;;;23.00;71.40;;;;;;5059554;28;19995;-87
2021/06/22 01:15:12;;;;;;;;;;;23.00;71.90;;;;;;5077212;28;20350;-87
2021/06/22 01:17:37;;;;;;;;;;;23.00;70.80;;;;;;5058976;28;20382;-87
2021/06/22 01:20:03;;;;;;;;;;;23.10;70.80;;;;;;5058739;28;19916;-87
2021/06/22 01:22:29;;;;;;;;;;;23.10;70.40;;;;;;5076634;28;19913;-87
2021/06/22 01:24:56;;;;;;;;;;;23.10;70.50;;;;;;5077309;28;19916;-87
2021/06/22 01:27:22;;;;;;;;;;;23.10;70.50;;;;;;5059546;28;19931;-84
2021/06/22 01:29:47;;;;;;;;;;;23.10;70.50;;;;;;5059573;28;20355;-84
2021/06/22 01:32:13;;;;;;;;;;;23.10;70.60;;;;;;5078674;28;19909;-84
2021/06/22 01:34:39;;;;;;;;;;;23.10;70.10;;;;;;5060877;28;20406;-85
2021/06/22 01:37:07;;;;;;;;;;;23.10;70.40;;;;;;5060016;28;19956;-86
2021/06/22 01:39:33;;;;;;;;;;;23.10;69.80;;;;;;5059835;28;20003;-86
2021/06/22 01:41:58;;;;;;;;;;;23.10;69.80;;;;;;5059869;28;19944;-85
2021/06/22 01:44:27;;;;;;;;;;;23.10;70.50;;;;;;5058919;28;19952;-86
2021/06/22 01:46:53;;;;;;;;;;;23.10;69.80;;;;;;5058707;28;20015;-86
2021/06/22 01:49:19;;;;;;;;;;;23.10;68.80;;;;;;5058317;28;19978;-86
2021/06/22 01:51:44;;;;;;;;;;;23.20;68.80;;;;;;5076595;28;20422;-85
2021/06/22 01:54:10;;;;;;;;;;;23.20;68.10;;;;;;5058638;28;19919;-86
2021/06/22 01:56:36;;;;;;;;;;;23.20;67.80;;;;;;5076129;28;19919;-86
2021/06/22 01:59:03;;;;;;;;;;;23.30;68.00;;;;;;5058452;28;19908;-86
2021/06/22 02:01:29;;;;;;;;;;;23.30;68.20;;;;;;5058328;28;20263;-86
2021/06/22 02:03:55;;;;;;;;;;;23.30;67.60;;;;;;5076305;28;19908;-86
2021/06/22 02:06:20;;;;;;;;;;;23.30;67.40;;;;;;5058079;28;19908;-86
2021/06/22 02:08:46;;;;;;;;;;;23.30;66.90;;;;;;5058628;28;20388;-85
2021/06/22 02:11:11;;;;;;;;;;;23.30;66.80;;;;;;5058330;28;20017;-86
2021/06/22 02:13:37;;;;;;;;;;;23.30;67.20;;;;;;5075703;28;20312;-86
2021/06/22 02:16:02;;;;;;;;;;;23.30;66.90;;;;;;5057567;28;19916;-85
2021/06/22 02:18:28;;;;;;;;;;;23.30;67.00;;;;;;5075716;28;19999;-85
2021/06/22 02:20:54;;;;;;;;;;;23.40;67.20;;;;;;5075793;28;19948;-85
2021/06/22 02:23:19;;;;;;;;;;;23.30;66.80;;;;;;5058275;28;19917;-86
2021/06/22 02:25:45;;;;;;;;;;;23.40;67.00;;;;;;5057922;28;19954;-85
2021/06/22 02:28:12;;;;;;;;;;;23.40;66.40;;;;;;5057843;28;19916;-86
2021/06/22 02:30:39;;;;;;;;;;;23.40;66.40;;;;;;5075613;28;19912;-86
2021/06/22 02:33:05;;;;;;;;;;;23.40;65.70;;;;;;5075608;28;20038;-86
2021/06/22 02:35:31;;;;;;;;;;;23.50;65.90;;;;;;5057316;28;19908;-86
2021/06/22 02:37:56;;;;;;;;;;;23.50;65.20;;;;;;5075770;28;19915;-86
2021/06/22 02:40:24;;;;;;;;;;;23.50;65.00;;;;;;5075547;28;19972;-86
2021/06/22 02:42:50;;;;;;;;;;;23.50;64.90;;;;;;5076050;28;19965;-86
2021/06/22 02:45:15;;;;;;;;;;;23.50;65.30;;;;;;5058072;28;19912;-87
2021/06/22 02:47:44;;;;;;;;;;;23.60;65.20;;;;;;5075189;28;19954;-86
2021/06/22 02:50:11;;;;;;;;;;;23.60;65.00;;;;;;5057373;28;19951;-87
2021/06/22 02:52:36;;;;;;;;;;;23.60;65.00;;;;;;5075401;28;19908;-86
2021/06/22 02:55:02;;;;;;;;;;;23.60;65.20;;;;;;5057014;28;19920;-86
2021/06/22 02:57:28;;;;;;;;;;;23.60;65.00;;;;;;5057401;28;19913;-86
2021/06/22 02:59:54;;;;;;;;;;;23.60;64.90;;;;;;5057098;28;19971;-85
2021/06/22 03:02:19;;;;;;;;;;;23.60;64.90;;;;;;5056670;28;19909;-86
2021/06/22 03:04:45;;;;;;;;;;;23.70;64.80;;;;;;5057079;28;19916;-86
2021/06/22 03:07:10;;;;;;;;;;;23.70;64.90;;;;;;5074832;28;19921;-85
2021/06/22 03:09:36;;;;;;;;;;;23.60;64.80;;;;;;5075296;28;19908;-85
2021/06/22 03:12:02;;;;;;;;;;;23.70;65.30;;;;;;5074827;28;20030;-86
2021/06/22 03:14:27;;;;;;;;;;;23.70;64.50;;;;;;5056813;28;20266;-85
2021/06/22 03:16:53;;;;;;;;;;;23.80;64.00;;;;;;5074462;28;19908;-85
2021/06/22 03:19:19;;;;;;;;;;;23.80;64.40;;;;;;5074575;28;19908;-85
2021/06/22 03:21:45;;;;;;;;;;;23.80;64.20;;;;;;5056851;28;19909;-85
2021/06/22 03:24:11;;;;;;;;;;;23.80;64.30;;;;;;5056739;28;19930;-86
2021/06/22 03:26:37;;;;;;;;;;;23.80;64.40;;;;;;5056661;28;19909;-85
2021/06/22 03:29:03;;;;;;;;;;;23.80;64.10;;;;;;5056112;28;20021;-85
2021/06/22 03:31:29;;;;;;;;;;;23.80;63.70;;;;;;5056521;28;19912;-85
2021/06/22 03:33:55;;;;;;;;;;;23.90;63.70;;;;;;5075093;28;20344;-86
2021/06/22 03:36:20;;;;;;;;;;;23.90;63.60;;;;;;5056144;28;19908;-85
2021/06/22 03:38:46;;;;;;;;;;;23.90;63.40;;;;;;5092780;28;19912;-85
2021/06/22 03:41:12;;;;;;;;;;;23.90;63.00;;;;;;5094780;28;19924;-85
2021/06/22 03:43:37;;;;;;;;;;;24.00;62.70;;;;;;5076153;28;20278;-84
2021/06/22 03:46:06;;;;;;;;;;;24.00;63.10;;;;;;5076444;28;19908;-85
2021/06/22 03:48:32;;;;;;;;;;;24.00;63.60;;;;;;5076514;28;19908;-84
2021/06/22 03:50:57;;;;;;;;;;;24.00;63.50;;;;;;5094854;28;20307;-84
2021/06/22 03:53:23;;;;;;;;;;;24.10;63.20;;;;;;5076606;28;19908;-84
2021/06/22 03:55:48;;;;;;;;;;;24.10;63.80;;;;;;5076686;28;20404;-85
2021/06/22 03:58:14;;;;;;;;;;;24.10;63.80;;;;;;5094344;28;19908;-85
2021/06/22 04:00:40;;;;;;;;;;;24.20;63.60;;;;;;5076052;28;19969;-86
2021/06/22 04:03:05;;;;;;;;;;;24.20;63.50;;;;;;5094464;28;20397;-87
2021/06/22 04:05:32;;;;;;;;;;;24.30;62.80;;;;;;5076153;28;19909;-86
2021/06/22 04:07:59;;;;;;;;;;;24.30;62.20;;;;;;5094301;28;19920;-86
2021/06/22 04:10:25;;;;;;;;;;;24.40;62.40;;;;;;5076255;28;19908;-85
2021/06/22 04:12:50;;;;;;;;;;;24.50;61.70;;;;;;5094246;28;19909;-85
2021/06/22 04:15:16;;;;;;;;;;;24.50;61.50;;;;;;5094130;28;19908;-85
2021/06/22 04:17:42;;;;;;;;;;;24.60;60.70;;;;;;5076011;28;19919;-85
2021/06/22 04:20:08;;;;;;;;;;;24.70;61.10;;;;;;5094107;28;19916;-85
2021/06/22 04:22:33;;;;;;;;;;;24.80;60.50;;;;;;5075928;28;20311;-85
2021/06/22 04:24:59;;;;;;;;;;;24.80;59.70;;;;;;5087576;28;20009;-84
2021/06/22 04:27:24;;;;;;;;;;;24.80;60.70;;;;;;5055583;28;19915;-85
2021/06/22 04:29:50;;;;;;;;;;;24.90;59.90;;;;;;5074033;28;20354;-84
2021/06/22 04:32:16;;;;;;;;;;;24.90;59.90;;;;;;5056150;28;19950;-85
2021/06/22 04:34:42;;;;;;;;;;;24.80;60.00;;;;;;5055823;28;20377;-84
2021/06/22 04:37:07;;;;;;;;;;;24.80;60.10;;;;;;5073743;28;20003;-85
2021/06/22 04:39:33;;;;;;;;;;;24.80;60.00;;;;;;5057673;28;20008;-84
2021/06/22 04:41:58;;;;;;;;;;;24.70;60.10;;;;;;5077395;28;20385;-87
2021/06/22 04:44:24;;;;;;;;;;;24.70;60.50;;;;;;5077617;28;19955;-86
2021/06/22 04:46:50;;;;;;;;;;;24.70;60.60;;;;;;5059580;28;19908;-84
2021/06/22 04:49:15;;;;;;;;;;;24.70;60.30;;;;;;5059473;28;19909;-85
2021/06/22 04:51:41;;;;;;;;;;;24.70;60.40;;;;;;5059637;28;19915;-84
2021/06/22 04:54:09;;;;;;;;;;;24.70;60.70;;;;;;5077719;28;19983;-82
2021/06/22 04:56:35;;;;;;;;;;;24.70;60.60;;;;;;5090030;28;19912;-82
2021/06/22 04:59:01;;;;;;;;;;;24.70;60.60;;;;;;5094234;28;20309;-86
2021/06/22 05:01:27;;;;;;;;;;;24.60;60.50;;;;;;5097488;28;19916;-92
2021/06/22 05:03:52;;;;;;;;;;;24.60;60.80;;;;;;5079532;28;19908;-85
2021/06/22 05:06:18;;;;;;;;;;;24.70;61.50;;;;;;5097155;28;19908;-85
2021/06/22 05:08:44;;;;;;;;;;;24.70;61.00;;;;;;5079311;28;20270;-87
2021/06/22 05:11:09;;;;;;;;;;;24.70;60.80;;;;;;5079190;28;19951;-86
2021/06/22 05:13:35;;;;;;;;;;;24.70;61.00;;;;;;5096979;28;20317;-85
2021/06/22 05:16:01;;;;;;;;;;;24.70;61.30;;;;;;5097579;28;19908;-90
2021/06/22 05:18:27;;;;;;;;;;;24.80;61.10;;;;;;5097489;28;20354;-87
2021/06/22 05:20:52;;;;;;;;;;;24.90;60.70;;;;;;5078727;28;19924;-84
2021/06/22 05:23:18;;;;;;;;;;;25.10;60.50;;;;;;5096996;28;19962;-84
2021/06/22 05:25:44;;;;;;;;;;;25.20;60.30;;;;;;5078822;28;19912;-83
2021/06/22 05:28:10;;;;;;;;;;;25.40;59.50;;;;;;5078522;28;19959;-84
2021/06/22 05:30:36;;;;;;;;;;;25.50;59.40;;;;;;5078525;28;20000;-84
2021/06/22 05:33:01;;;;;;;;;;;25.70;58.80;;;;;;5096580;28;19908;-84
2021/06/22 05:35:27;;;;;;;;;;;25.80;58.90;;;;;;5097241;28;19956;-83
2021/06/22 05:37:53;;;;;;;;;;;26.00;57.90;;;;;;5096856;28;19915;-82
2021/06/22 05:40:18;;;;;;;;;;;26.10;59.00;;;;;;5096653;28;19920;-83
2021/06/22 05:42:44;;;;;;;;;;;26.10;59.00;;;;;;5093051;28;19912;-85
2021/06/22 05:45:09;;;;;;;;;;;26.10;57.80;;;;;;5076376;28;19913;-82
2021/06/22 05:47:35;;;;;;;;;;;26.20;57.80;;;;;;5076118;28;19916;-83
2021/06/22 05:50:01;;;;;;;;;;;26.20;57.90;;;;;;5058036;28;19982;-83
2021/06/22 05:52:26;;;;;;;;;;;26.30;57.90;;;;;;5075892;28;19954;-83
2021/06/22 05:54:52;;;;;;;;;;;26.40;58.10;;;;;;5058563;28;20008;-83
2021/06/22 05:57:17;;;;;;;;;;;26.40;58.00;;;;;;5078546;28;20270;-82
2021/06/22 05:59:43;;;;;;;;;;;26.50;57.10;;;;;;5075855;28;19916;-81
2021/06/22 06:02:08;;;;;;;;;;;26.50;56.20;;;;;;5081549;28;19912;-82
2021/06/22 06:04:34;;;;;;;;;;;26.50;56.60;;;;;;5069951;28;19960;-81
2021/06/22 06:07:00;;;;;;;;;;;26.60;57.00;;;;;;5075927;28;20282;-93
2021/06/22 06:09:27;;;;;;;;;;;26.60;56.60;;;;;;5057136;28;19908;-88
2021/06/22 06:11:52;;;;;;;;;;;26.60;57.00;;;;;;5056409;28;19909;-86
2021/06/22 06:14:18;;;;;;;;;;;26.60;56.20;;;;;;5075178;28;20374;-85
2021/06/22 06:16:43;;;;;;;;;;;26.70;56.60;;;;;;5057252;28;20003;-85
2021/06/22 06:19:09;;;;;;;;;;;26.70;56.70;;;;;;5057219;28;19919;-86
2021/06/22 06:21:41;;;;;;;;;;;26.90;56.80;;;;;;5057833;28;19923;-85
2021/06/22 06:24:07;;;;;;;;;;;27.00;56.50;;;;;;5056138;28;19946;-85
2021/06/22 06:26:42;;;;;;;;;;;27.00;56.50;;;;;;5055976;28;20003;-85
2021/06/22 06:29:33;;;;;;;;;;;27.10;56.30;;;;;;5056311;28;19908;-85
2021/06/22 06:31:55;;;;;;;;;;;27.10;56.10;;;;;;5073318;28;19915;-86
2021/06/22 06:34:21;;;;;;;;;;;27.20;55.40;;;;;;5074150;28;20003;-86
2021/06/22 06:36:47;;;;;;;;;;;27.20;56.20;;;;;;5056831;28;19958;-85
2021/06/22 06:39:13;;;;;;;;;;;27.20;55.30;;;;;;5075544;28;19908;-85
2021/06/22 06:41:38;;;;;;;;;;;27.20;54.50;;;;;;5057694;28;19977;-85
2021/06/22 06:44:04;;;;;;;;;;;27.30;55.70;;;;;;5057551;28;19909;-85
2021/06/22 06:46:29;;;;;;;;;;;27.30;55.10;;;;;;5075840;28;19954;-84
2021/06/22 06:48:55;;;;;;;;;;;27.40;53.70;;;;;;5075427;28;19962;-83
2021/06/22 06:51:20;;;;;;;;;;;27.50;55.30;;;;;;5057269;28;19909;-83
2021/06/22 06:53:46;;;;;;;;;;;27.50;53.40;;;;;;5075433;28;20188;-84
2021/06/22 06:56:12;;;;;;;;;;;27.60;53.70;;;;;;5075371;28;19944;-85
2021/06/22 06:58:37;;;;;;;;;;;27.70;54.50;;;;;;5057576;28;20254;-85
2021/06/22 07:01:03;;;;;;;;;;;27.70;53.70;;;;;;5075032;28;20003;-85
2021/06/22 07:03:28;;;;;;;;;;;27.80;52.30;;;;;;5055850;28;20389;-84
2021/06/22 07:05:54;;;;;;;;;;;27.90;53.20;;;;;;5074461;28;19986;-84
2021/06/22 07:08:19;;;;;;;;;;;27.90;53.50;;;;;;5074644;28;20281;-85
2021/06/22 07:10:45;;;;;;;;;;;27.90;52.70;;;;;;5056935;28;19915;-84
2021/06/22 07:13:15;;;;;;;;;;;28.00;52.30;;;;;;5075165;28;19908;-85
2021/06/22 07:15:41;;;;;;;;;;;28.00;52.30;;;;;;5075067;28;20258;-85
2021/06/22 07:18:06;;;;;;;;;;;28.10;52.00;;;;;;5056912;28;19940;-84
2021/06/22 07:20:32;;;;;;;;;;;28.10;52.50;;;;;;5074573;28;19916;-85
2021/06/22 07:22:58;;;;;;;;;;;28.20;51.10;;;;;;5074816;28;19908;-84
2021/06/22 07:25:26;;;;;;;;;;;28.20;51.30;;;;;;5075232;28;20377;-83
2021/06/22 07:27:52;;;;;;;;;;;28.20;50.80;;;;;;5056981;28;19954;-83
2021/06/22 07:30:19;;;;;;;;;;;28.20;50.70;;;;;;5056556;28;19908;-83
2021/06/22 07:32:44;;;;;;;;;;;28.20;50.50;;;;;;5056731;28;19940;-83
2021/06/22 07:35:10;;;;;;;;;;;28.20;50.90;;;;;;5056658;28;19909;-84
2021/06/22 07:37:36;;;;;;;;;;;28.20;50.60;;;;;;5074225;28;19991;-84
2021/06/22 07:40:02;;;;;;;;;;;28.20;50.90;;;;;;5074467;28;20013;-83
2021/06/22 07:42:27;;;;;;;;;;;28.20;50.80;;;;;;5056549;28;20042;-83
2021/06/22 07:44:53;;;;;;;;;;;28.20;50.80;;;;;;5056233;28;19954;-83
2021/06/22 07:47:18;;;;;;;;;;;28.20;50.40;;;;;;5074423;28;20366;-83
2021/06/22 07:49:44;;;;;;;;;;;28.30;50.30;;;;;;5056293;28;20274;-83
2021/06/22 07:52:10;;;;;;;;;;;28.40;50.60;;;;;;5074164;28;20603;-83
2021/06/22 07:54:36;;;;;;;;;;;28.50;50.30;;;;;;5074390;28;20469;-83
2021/06/22 07:57:02;;;;;;;;;;;28.40;50.30;;;;;;5074487;28;20053;-83
2021/06/22 07:59:27;;;;;;;;;;;28.50;50.70;;;;;;5074573;28;19954;-84
2021/06/22 08:01:53;;;;;;;;;;;28.50;50.70;;;;;;5074350;28;19908;-83
2021/06/22 08:04:20;;;;;;;;;;;28.60;51.60;;;;;;5073921;28;19913;-83
2021/06/22 08:06:45;;;;;;;;;;;28.70;49.80;;;;;;5074041;28;19922;-83
2021/06/22 08:09:11;;;;;;;;;;;28.70;50.70;;;;;;5074442;28;19951;-84
2021/06/22 08:11:36;;;;;;;;;;;28.80;50.60;;;;;;5074138;28;19963;-85
2021/06/22 08:14:02;;;;;;;;;;;28.90;50.50;;;;;;5073565;28;19924;-84
2021/06/22 08:16:28;;;;;;;;;;;29.00;49.90;;;;;;5075011;28;19921;-84
2021/06/22 08:18:53;;;;;;;;;;;29.10;50.40;;;;;;5056037;28;19908;-84
2021/06/22 08:21:19;;;;;;;;;;;29.10;50.40;;;;;;5055852;28;19971;-84
2021/06/22 08:23:44;;;;;;;;;;;29.20;49.70;;;;;;5056186;28;19998;-84
2021/06/22 08:26:10;;;;;;;;;;;29.30;50.50;;;;;;5055942;28;20395;-84
2021/06/22 08:28:36;;;;;;;;;;;29.50;50.40;;;;;;5055979;28;19908;-84
2021/06/22 08:31:02;;;;;;;;;;;29.70;50.00;;;;;;5055855;28;19909;-85
2021/06/22 08:33:28;;;;;;;;;;;29.90;50.90;;;;;;5073720;28;20274;-84
2021/06/22 08:35:53;;;;;;;;;;;30.20;49.10;;;;;;5074006;28;20418;-84
2021/06/22 08:38:19;;;;;;;;;;;30.40;49.50;;;;;;5073724;28;19912;-84
2021/06/22 08:40:45;;;;;;;;;;;30.60;48.80;;;;;;5073673;28;20282;-85
2021/06/22 08:43:12;;;;;;;;;;;30.90;49.80;;;;;;5055725;28;19909;-82
2021/06/22 08:45:38;;;;;;;;;;;31.10;47.70;;;;;;5073707;28;19954;-82
2021/06/22 08:48:04;;;;;;;;;;;31.30;47.40;;;;;;5073764;28;19909;-83
2021/06/22 08:50:30;;;;;;;;;;;31.40;47.40;;;;;;5055356;28;19920;-83
2021/06/22 08:52:55;;;;;;;;;;;31.60;46.00;;;;;;5073729;28;19909;-83
2021/06/22 08:55:30;;;;;;;;;;;31.80;46.00;;;;;;5073992;28;19912;-83
2021/06/22 08:57:59;;;;;;;;;;;32.00;45.60;;;;;;5073703;28;20282;-83
2021/06/22 09:00:25;;;;;;;;;;;32.10;45.30;;;;;;5055718;28;19955;-84
2021/06/22 09:02:58;;;;;;;;;;;32.30;45.60;;;;;;5070416;28;20008;-84
2021/06/22 09:05:25;;;;;;;;;;;32.40;46.00;;;;;;5060477;28;20000;-83
2021/06/22 09:07:53;;;;;;;;;;;32.60;45.40;;;;;;5053464;28;19921;-83
2021/06/22 09:10:21;;;;;;;;;;;32.70;45.60;;;;;;5068714;28;19919;-83
2021/06/22 09:12:47;;;;;;;;;;;32.70;45.60;;;;;;5093765;28;19908;-87
2021/06/22 09:15:21;;;;;;;;;;;32.90;45.60;;;;;;5075411;28;20281;-85
2021/06/22 09:17:47;;;;;;;;;;;33.00;45.60;;;;;;5094019;28;19962;-85
2021/06/22 09:20:30;;;;;;;;;;;33.10;43.70;;;;;;5065754;28;19947;-86
2021/06/22 09:23:22;;;;;;;;;;;33.20;44.60;;;;;;5090374;28;19919;-87
2021/06/22 09:25:58;;;;;;;;;;;33.30;44.40;;;;;;5089598;28;19908;-87
2021/06/22 09:28:29;;;;;;;;;;;33.40;44.30;;;;;;5078441;28;19915;-86
2021/06/22 09:30:56;;;;;;;;;;;33.50;42.70;;;;;;5076534;28;19916;-86
2021/06/22 09:33:40;;;;;;;;;;;33.60;43.90;;;;;;5076231;28;20338;-87
2021/06/22 09:36:29;;;;;;;;;;;33.80;43.50;;;;;;5076582;28;20274;-87
2021/06/22 09:38:56;;;;;;;;;;;33.90;42.50;;;;;;5076778;28;19909;-86
2021/06/22 09:41:23;;;;;;;;;;;34.10;43.20;;;;;;5076480;28;19916;-87
2021/06/22 09:43:48;;;;;;;;;;;34.20;42.70;;;;;;5095738;28;19914;-85
2021/06/22 09:46:17;;;;;;;;;;;34.40;42.90;;;;;;5096978;28;20332;-84
2021/06/22 09:48:50;;;;;;;;;;;34.60;43.70;;;;;;5096897;28;19908;-85
2021/06/22 09:51:16;;;;;;;;;;;34.70;42.30;;;;;;5097258;28;20001;-85
2021/06/22 09:53:42;;;;;;;;;;;34.80;42.80;;;;;;5079110;28;19916;-85
2021/06/22 09:56:21;;;;;;;;;;;34.90;41.80;;;;;;5096635;28;20327;-85
2021/06/22 09:58:47;;;;;;;;;;;34.90;41.60;;;;;;5088942;28;19908;-85
2021/06/22 10:01:25;;;;;;;;;;;34.90;43.20;;;;;;5096516;28;19923;-86
2021/06/22 10:03:51;;;;;;;;;;;35.00;41.20;;;;;;5096638;28;19963;-86
2021/06/22 10:06:16;;;;;;;;;;;35.00;41.20;;;;;;5078061;28;20350;-86
2021/06/22 10:08:56;;;;;;;;;;;35.10;42.20;;;;;;5078580;28;20013;-85
2021/06/22 10:11:31;;;;;;;;;;;35.20;40.50;;;;;;5078538;28;19912;-86
2021/06/22 10:13:57;;;;;;;;;;;35.30;41.40;;;;;;5078402;28;19916;-86
2021/06/22 10:16:23;;;;;;;;;;;35.40;40.20;;;;;;5096553;28;19908;-86
2021/06/22 10:18:49;;;;;;;;;;;35.50;40.00;;;;;;5096098;28;19918;-86
2021/06/22 10:21:16;;;;;;;;;;;35.60;40.90;;;;;;5096025;28;20015;-87
2021/06/22 10:23:44;;;;;;;;;;;35.70;39.20;;;;;;5077965;28;19908;-86
2021/06/22 10:26:10;;;;;;;;;;;35.80;41.30;;;;;;5096672;28;19908;-86
2021/06/22 10:28:36;;;;;;;;;;;35.90;39.60;;;;;;5096579;28;19915;-86
2021/06/22 10:31:03;;;;;;;;;;;36.00;39.60;;;;;;5096034;28;19951;-87
2021/06/22 10:33:29;;;;;;;;;;;36.00;38.80;;;;;;5096035;28;20052;-86
2021/06/22 10:35:54;;;;;;;;;;;35.90;38.80;;;;;;5077746;28;19908;-86
2021/06/22 10:38:22;;;;;;;;;;;35.90;40.10;;;;;;5095585;28;19914;-86
2021/06/22 10:40:55;;;;;;;;;;;36.00;39.70;;;;;;5077609;28;19923;-84
2021/06/22 10:43:33;;;;;;;;;;;36.10;39.10;;;;;;5096012;28;19908;-85
2021/06/22 10:46:03;;;;;;;;;;;36.20;39.00;;;;;;5095638;28;20421;-85
2021/06/22 10:48:38;;;;;;;;;;;36.40;39.30;;;;;;5095737;28;19908;-85
2021/06/22 10:51:23;;;;;;;;;;;36.60;39.00;;;;;;5095542;28;19916;-85
2021/06/22 10:53:49;;;;;;;;;;;36.70;38.30;;;;;;5077418;28;19920;-85
2021/06/22 10:56:16;;;;;;;;;;;36.80;38.90;;;;;;5077650;28;20354;-86
2021/06/22 10:58:41;;;;;;;;;;;36.80;38.60;;;;;;5077983;28;19908;-86
2021/06/22 11:01:08;;;;;;;;;;;36.80;38.00;;;;;;5095718;28;19970;-85
2021/06/22 11:03:36;;;;;;;;;;;37.00;38.80;;;;;;5096020;28;19951;-85
2021/06/22 11:06:14;;;;;;;;;;;37.10;37.60;;;;;;5095417;28;20256;-85
2021/06/22 11:08:41;;;;;;;;;;;37.10;37.00;;;;;;5077935;28;20301;-85
2021/06/22 11:11:07;;;;;;;;;;;37.10;37.70;;;;;;5077691;28;19916;-85
2021/06/22 11:13:33;;;;;;;;;;;37.10;38.30;;;;;;5077316;28;19908;-85
2021/06/22 11:16:04;;;;;;;;;;;37.20;37.90;;;;;;5095707;28;20033;-85
2021/06/22 11:18:49;;;;;;;;;;;37.20;37.30;;;;;;5078021;28;19908;-86
2021/06/22 11:21:15;;;;;;;;;;;37.20;37.60;;;;;;5095436;28;19916;-86
2021/06/22 11:23:54;;;;;;;;;;;37.30;37.80;;;;;;5095723;28;19912;-86
2021/06/22 11:26:20;;;;;;;;;;;37.30;37.10;;;;;;5077364;28;19916;-84
2021/06/22 11:29:03;;;;;;;;;;;37.30;36.70;;;;;;5095173;28;20243;-86
2021/06/22 11:31:35;;;;;;;;;;;37.30;37.00;;;;;;5077784;28;19920;-85
2021/06/22 11:34:11;;;;;;;;;;;37.40;38.00;;;;;;5095554;28;19908;-85
2021/06/22 11:36:38;;;;;;;;;;;37.40;36.60;;;;;;5095353;28;19908;-85
2021/06/22 11:39:11;;;;;;;;;;;37.40;35.50;;;;;;5076753;28;20301;-85
2021/06/22 11:41:37;;;;;;;;;;;37.40;36.10;;;;;;5094758;28;19916;-85
2021/06/22 11:44:08;;;;;;;;;;;37.50;36.10;;;;;;5095108;28;19912;-85
2021/06/22 11:46:35;;;;;;;;;;;37.40;35.80;;;;;;5076514;28;19908;-84
2021/06/22 11:49:01;;;;;;;;;;;37.50;36.50;;;;;;5076243;28;20320;-85
2021/06/22 11:51:45;;;;;;;;;;;37.60;36.10;;;;;;5095057;28;19912;-85
2021/06/22 11:54:11;;;;;;;;;;;37.70;36.20;;;;;;5094607;28;19912;-85
2021/06/22 11:56:37;;;;;;;;;;;37.90;36.20;;;;;;5076862;28;20316;-86
2021/06/22 11:59:02;;;;;;;;;;;38.10;36.70;;;;;;5094924;28;19915;-85
2021/06/22 12:01:28;;;;;;;;;;;38.20;35.00;;;;;;5095479;28;20366;-87
2021/06/22 12:03:54;;;;;;;;;;;38.20;35.40;;;;;;5076879;28;19934;-87
2021/06/22 12:06:23;;;;;;;;;;;38.20;34.40;;;;;;5075846;28;19923;-86
2021/06/22 12:08:49;;;;;;;;;;;38.10;34.60;;;;;;5076645;28;19908;-86
2021/06/22 12:11:27;;;;;;;;;;;38.10;34.50;;;;;;5094815;28;19955;-86
2021/06/22 12:13:53;;;;;;;;;;;38.20;35.50;;;;;;5094387;28;19955;-86
2021/06/22 12:16:29;;;;;;;;;;;38.20;35.10;;;;;;5076408;28;19908;-86
2021/06/22 12:18:56;;;;;;;;;;;38.20;34.30;;;;;;5076240;28;19913;-86
2021/06/22 12:21:25;;;;;;;;;;;38.20;34.40;;;;;;5094589;28;19916;-86
2021/06/22 12:23:51;;;;;;;;;;;38.20;34.60;;;;;;5076396;28;19916;-86
2021/06/22 12:26:29;;;;;;;;;;;38.20;34.60;;;;;;5077122;28;19908;-86
2021/06/22 12:28:54;;;;;;;;;;;38.20;34.50;;;;;;5076597;28;19909;-85
2021/06/22 12:31:20;;;;;;;;;;;38.20;34.50;;;;;;5095397;28;19919;-84
2021/06/22 12:33:46;;;;;;;;;;;38.20;34.40;;;;;;5095274;28;19953;-85
2021/06/22 12:36:19;;;;;;;;;;;38.20;34.30;;;;;;5095170;28;19999;-84
2021/06/22 12:38:44;;;;;;;;;;;38.30;34.40;;;;;;5068402;28;20274;-85
2021/06/22 12:41:11;;;;;;;;;;;38.30;34.20;;;;;;5093926;28;19916;-86
2021/06/22 12:43:41;;;;;;;;;;;38.30;34.60;;;;;;5076216;28;19908;-86
2021/06/22 12:46:07;;;;;;;;;;;38.40;34.50;;;;;;5094385;28;19955;-86
2021/06/22 12:48:32;;;;;;;;;;;38.40;34.30;;;;;;5094423;28;19915;-85
2021/06/22 12:50:58;;;;;;;;;;;38.50;35.20;;;;;;5076657;28;20270;-86
2021/06/22 12:53:24;;;;;;;;;;;38.50;34.40;;;;;;5093984;28;19908;-87
2021/06/22 12:55:51;;;;;;;;;;;38.60;35.10;;;;;;5076093;28;19912;-87
2021/06/22 12:58:17;;;;;;;;;;;38.70;34.70;;;;;;5095263;28;19915;-87
2021/06/22 13:00:44;;;;;;;;;;;38.80;34.70;;;;;;5096883;28;19916;-86
2021/06/22 13:03:20;;;;;;;;;;;38.90;35.10;;;;;;5079635;28;19949;-87
2021/06/22 13:05:53;;;;;;;;;;;38.90;35.00;;;;;;5079720;28;20418;-86
2021/06/22 13:08:23;;;;;;;;;;;39.00;33.90;;;;;;5097452;28;19920;-87
2021/06/22 13:10:54;;;;;;;;;;;38.90;33.80;;;;;;5079428;28;19908;-87
2021/06/22 13:13:30;;;;;;;;;;;38.90;34.20;;;;;;5097927;28;19912;-87
2021/06/22 13:16:08;;;;;;;;;;;38.90;34.00;;;;;;5097817;28;19990;-87
2021/06/22 13:18:53;;;;;;;;;;;38.90;34.30;;;;;;5079396;28;19961;-87
2021/06/22 13:21:18;;;;;;;;;;;38.90;34.10;;;;;;5097662;28;20362;-86
2021/06/22 13:23:44;;;;;;;;;;;38.90;34.20;;;;;;5097797;28;19914;-87
2021/06/22 13:26:09;;;;;;;;;;;38.90;34.00;;;;;;5097477;28;19912;-87
2021/06/22 13:28:35;;;;;;;;;;;38.90;34.00;;;;;;5080432;28;20048;-84
2021/06/22 13:31:10;;;;;;;;;;;38.90;34.20;;;;;;5079667;28;19964;-86
2021/06/22 13:33:36;;;;;;;;;;;38.80;33.40;;;;;;5097409;28;19934;-86
2021/06/22 13:36:01;;;;;;;;;;;38.70;34.10;;;;;;5097031;28;19908;-89
2021/06/22 13:38:28;;;;;;;;;;;38.70;34.60;;;;;;5079110;28;19908;-86
2021/06/22 13:40:55;;;;;;;;;;;38.80;33.30;;;;;;5097139;28;19916;-86
2021/06/22 13:43:22;;;;;;;;;;;38.80;34.20;;;;;;5097021;28;19908;-85
2021/06/22 13:45:49;;;;;;;;;;;38.90;34.30;;;;;;5097392;28;20342;-86
2021/06/22 13:48:21;;;;;;;;;;;38.90;33.90;;;;;;5096910;28;20422;-85
2021/06/22 13:50:47;;;;;;;;;;;39.00;34.80;;;;;;5079174;28;19908;-86
2021/06/22 13:53:19;;;;;;;;;;;38.90;34.50;;;;;;5097267;28;19908;-87
2021/06/22 13:55:45;;;;;;;;;;;38.80;33.80;;;;;;5078795;28;19938;-86
2021/06/22 13:58:11;;;;;;;;;;;38.70;33.30;;;;;;5097374;28;20354;-86
2021/06/22 14:00:38;;;;;;;;;;;38.70;33.60;;;;;;5097016;28;20244;-86
2021/06/22 14:03:05;;;;;;;;;;;38.60;33.40;;;;;;5079211;28;20415;-87
2021/06/22 14:05:32;;;;;;;;;;;38.60;32.70;;;;;;5097278;28;20271;-86
2021/06/22 14:07:59;;;;;;;;;;;38.60;32.30;;;;;;5078789;28;19920;-85
2021/06/22 14:10:25;;;;;;;;;;;38.70;32.70;;;;;;5097734;28;20265;-86
2021/06/22 14:12:50;;;;;;;;;;;38.60;32.30;;;;;;5096547;28;19915;-86
2021/06/22 14:15:16;;;;;;;;;;;38.60;31.60;;;;;;5096629;28;20054;-85
2021/06/22 14:17:42;;;;;;;;;;;38.60;31.90;;;;;;5097069;28;19912;-85